createdAt,value
2019-02-20T20:12:35.412Z,7.70
2019-02-20T20:15:40.171Z,7.30
2019-02-20T20:18:39.818Z,7.30
2019-02-20T20:21:47.756Z,7.20
2019-02-20T20:24:33.942Z,7.10
2019-02-20T20:27:43.303Z,7.00
2019-02-20T20:30:51.431Z,7.00
2019-02-20T20:34:00.293Z,6.80
2019-02-20T20:37:14.664Z,7.00
2019-02-20T20:40:30.319Z,7.10
2019-02-20T20:43:50.093Z,7.00
2019-02-20T20:47:07.555Z,7.00
2019-02-20T20:50:06.108Z,6.90
2019-02-20T20:53:02.842Z,6.90
2019-02-20T20:56:06.340Z,6.90
2019-02-20T20:59:17.801Z,6.80
2019-02-20T21:02:10.766Z,6.80
2019-02-20T21:05:21.036Z,6.90
2019-02-20T21:08:13.846Z,6.80
2019-02-20T21:14:39.788Z,6.70
2019-02-20T21:17:36.099Z,6.70
2019-02-20T21:21:05.482Z,6.70
2019-02-20T21:24:12.333Z,6.50
2019-02-20T21:26:59.341Z,6.60
2019-02-20T21:30:18.679Z,6.60
2019-02-20T21:33:15.111Z,6.50
2019-02-20T21:35:56.669Z,6.40
2019-02-20T21:39:15.665Z,6.40
2019-02-20T21:42:28.381Z,6.40
2019-02-20T21:45:28.279Z,6.60
2019-02-20T21:48:39.284Z,6.40
2019-02-20T21:51:43.472Z,6.60
2019-02-20T21:54:45.078Z,6.50
2019-02-20T21:58:01.453Z,6.20
2019-02-20T22:00:52.561Z,6.30
2019-02-20T22:04:14.617Z,6.20
2019-02-20T22:07:01.990Z,6.10
2019-02-20T22:09:57.888Z,6.10
2019-02-20T22:12:51.375Z,6.60
2019-02-20T22:15:51.330Z,6.60
2019-02-20T22:18:40.530Z,6.50
2019-02-20T22:21:55.770Z,6.90
2019-02-20T22:24:55.382Z,6.60
2019-02-20T22:27:48.508Z,6.40
2019-02-20T22:30:43.135Z,6.30
2019-02-20T22:33:55.234Z,6.50
2019-02-20T22:37:05.084Z,6.30
2019-02-20T22:40:10.843Z,6.60
2019-02-20T22:43:27.344Z,6.40
2019-02-20T22:46:26.984Z,6.30
2019-02-20T22:49:22.535Z,6.20
2019-02-20T22:52:09.446Z,6.30
2019-02-20T22:55:44.126Z,6.40
2019-02-20T22:58:37.992Z,6.30
2019-02-20T23:01:54.852Z,6.10
2019-02-20T23:05:05.477Z,6.20
2019-02-20T23:08:06.135Z,6.20
2019-02-20T23:11:23.434Z,6.20
2019-02-20T23:14:21.592Z,6.00
2019-02-20T23:16:51.013Z,6.00
2019-02-20T23:19:20.328Z,6.20
2019-02-20T23:21:49.701Z,6.00
2019-02-20T23:24:18.626Z,6.00
2019-02-20T23:26:47.801Z,6.20
2019-02-20T23:29:16.920Z,6.00
2019-02-20T23:31:46.041Z,6.20
2019-02-20T23:34:15.470Z,6.20
2019-02-20T23:36:44.710Z,6.00
2019-02-20T23:39:14.071Z,6.20
2019-02-20T23:41:43.120Z,6.10
2019-02-20T23:44:12.368Z,6.30
2019-02-20T23:46:41.384Z,6.30
2019-02-20T23:49:10.630Z,6.20
2019-02-20T23:51:39.525Z,6.10
2019-02-20T23:54:09.081Z,6.30
2019-02-20T23:56:38.186Z,6.20
2019-02-20T23:59:08.766Z,6.30
